Terminal Aerodrome Forecast
Issued by NWS

Home | Current Version | Previous Version | Text Only | Print | Product List | Glossary Off
Versions: 1 2 3 4 5 6 7 8 9 10 11 12 13 14 15 16 17 18 19 20 21

000
FTUS43 KICT 262322
TAFCNU
TAF
KCNU 262322Z 2700/2724 10009KT P6SM VCTS SCT025 BKN100CB
      TEMPO 2700/2704 VRB20G35KT 3SM +TSRA OVC025CB
     FM270600 05009KT 5SM SHRA OVC012
     FM271100 36010KT 4SM BR VCSH OVC008
     FM271600 35012KT P6SM OVC020
     FM272000 36008KT P6SM SCT025=

USA.gov is the U.S. government's official web portal to all federal, state and local government web resources and services.